Mountain House, California
Current Conditions -  °F | °C
As of 1:09 PM on Friday 31 Oct 2014 (Local Time) from KLVK Reporting Station
Overcast Overcast  
Wind Chill: 63°   Ceiling: 2600
Heat Index: 63°   Visibility: 10mi
Dew Point: 57°   Wind: 12mph
Humidity: 82%   Direction: 280°W
Pressure: 29.83"   Gusts: NA
Location:  37.7582°N, 121.525°W
Report Text: KLVK 312009Z 28010KT 10SM SCT021 BKN026 OVC039 17/14 A2983 RMK AO2 RAE03 P0000
Loading
Personal Weather Stations






























Interactive Weather Map
Tropical Storm Tracking
New forecast layout! Learn more

10-Day Weather Forecast

Advertisements
Track Severe Weather on mobile